createdAt,value
2022-11-16T00:02:14.021Z,100317.97
2022-11-16T00:04:42.604Z,100318.38
2022-11-16T00:07:11.462Z,100315.47
2022-11-16T00:09:39.620Z,100312.09
2022-11-16T00:12:09.614Z,100310.91
2022-11-16T00:14:37.681Z,100307.19
2022-11-16T00:17:05.928Z,100301.78
2022-11-16T00:19:35.217Z,100301.78
2022-11-16T00:22:03.240Z,100306.72
2022-11-16T00:24:31.199Z,100298.38
2022-11-16T00:26:59.155Z,100303.94
2022-11-16T00:29:28.016Z,100296.75
2022-11-16T00:31:56.210Z,100302.22
2022-11-16T00:34:24.840Z,100301.03
2022-11-16T00:36:54.310Z,100302.97
2022-11-16T00:39:22.275Z,100299.25
2022-11-16T00:41:50.621Z,100300.50
2022-11-16T00:44:18.971Z,100299.44
2022-11-16T00:46:46.941Z,100290.59
2022-11-16T00:49:15.040Z,100288.38
2022-11-16T00:51:43.463Z,100288.25
2022-11-16T00:54:13.554Z,100282.28
2022-11-16T00:56:41.757Z,100277.25
2022-11-16T00:59:09.724Z,100278.97
2022-11-16T01:01:37.872Z,100281.75
2022-11-16T01:04:07.526Z,100292.16
2022-11-16T01:06:37.071Z,100287.03
2022-11-16T01:09:04.992Z,100282.88
2022-11-16T01:11:51.633Z,100286.72
2022-11-16T01:14:19.633Z,100292.81
2022-11-16T01:16:50.772Z,100284.06
2022-11-16T01:19:18.812Z,100288.91
2022-11-16T01:21:46.723Z,100299.84
2022-11-16T01:24:15.016Z,100302.31
2022-11-16T01:26:44.395Z,100302.75
2022-11-16T01:29:12.772Z,100295.03
2022-11-16T01:31:44.959Z,100298.13
2022-11-16T01:34:12.885Z,100295.50
2022-11-16T01:36:40.988Z,100295.97
2022-11-16T01:39:09.027Z,100301.69
2022-11-16T01:41:58.540Z,100301.38
2022-11-16T01:45:02.269Z,100291.13
2022-11-16T01:47:31.713Z,100285.84
2022-11-16T01:50:07.566Z,100281.28
2022-11-16T01:52:40.421Z,100272.22
2022-11-16T01:55:08.929Z,100272.72
2022-11-16T01:57:58.621Z,100272.97
2022-11-16T02:00:27.071Z,100266.56
2022-11-16T02:03:07.974Z,100268.78
2022-11-16T02:05:58.521Z,100268.59
2022-11-16T02:08:58.066Z,100259.19
2022-11-16T02:11:54.053Z,100252.03
2022-11-16T02:14:42.968Z,100242.41
2022-11-16T02:17:22.407Z,100246.16
2022-11-16T02:20:14.177Z,100238.88
2022-11-16T02:22:56.867Z,100244.19
2022-11-16T02:25:35.691Z,100246.69
2022-11-16T02:28:22.012Z,100236.50
2022-11-16T02:30:55.541Z,100237.56
2022-11-16T02:33:32.084Z,100229.28
2022-11-16T02:36:04.057Z,100220.06
2022-11-16T02:38:36.939Z,100220.88
2022-11-16T02:41:10.546Z,100221.47
2022-11-16T02:43:43.835Z,100218.28
2022-11-16T02:46:27.044Z,100207.13
2022-11-16T02:48:59.456Z,100207.84
2022-11-16T02:51:29.315Z,100203.50
2022-11-16T02:54:03.792Z,100199.03
2022-11-16T02:56:44.109Z,100191.66
2022-11-16T02:59:17.412Z,100193.34
2022-11-16T03:01:50.797Z,100198.00
2022-11-16T03:04:23.959Z,100193.44
2022-11-16T03:06:52.806Z,100205.63
2022-11-16T03:09:25.394Z,100204.53
2022-11-16T03:12:02.827Z,100206.38
2022-11-16T03:14:38.063Z,100205.16
2022-11-16T03:17:12.558Z,100200.50
2022-11-16T03:19:46.185Z,100198.25
2022-11-16T03:22:18.599Z,100198.66
2022-11-16T03:24:46.945Z,100195.38
2022-11-16T03:27:26.153Z,100203.00
2022-11-16T03:30:03.420Z,100198.38
2022-11-16T03:32:39.394Z,100194.81
2022-11-16T03:35:16.491Z,100194.66
2022-11-16T03:37:47.307Z,100194.25
2022-11-16T03:40:17.760Z,100202.25
2022-11-16T03:42:49.474Z,100201.03
2022-11-16T03:45:19.799Z,100200.09
2022-11-16T03:47:49.229Z,100200.94
2022-11-16T03:50:17.414Z,100193.53
2022-11-16T03:52:45.327Z,100202.00
2022-11-16T03:55:15.055Z,100201.44
2022-11-16T03:57:44.759Z,100192.97
2022-11-16T04:00:13.870Z,100195.78
2022-11-16T04:02:43.136Z,100196.16
2022-11-16T04:05:36.097Z,100194.66
2022-11-16T04:08:23.339Z,100189.63
2022-11-16T04:11:08.917Z,100183.09
2022-11-16T04:13:55.366Z,100179.19
2022-11-16T04:16:40.739Z,100163.44
2022-11-16T04:19:27.365Z,100163.91
2022-11-16T04:22:16.775Z,100167.09
2022-11-16T04:24:48.860Z,100175.81
2022-11-16T04:27:37.376Z,100174.81
2022-11-16T04:30:07.194Z,100164.47
2022-11-16T04:32:53.137Z,100166.53
2022-11-16T04:35:38.666Z,100155.72
2022-11-16T04:38:09.803Z,100158.41
2022-11-16T04:40:38.308Z,100156.44
2022-11-16T04:43:05.877Z,100164.94
2022-11-16T04:45:54.802Z,100162.56
2022-11-16T04:48:27.047Z,100162.41
2022-11-16T04:50:56.071Z,100154.00
2022-11-16T04:53:27.879Z,100162.91
2022-11-16T04:56:03.766Z,100156.78
2022-11-16T04:58:33.659Z,100151.59
2022-11-16T05:01:01.785Z,100152.88
2022-11-16T05:03:29.909Z,100152.59
2022-11-16T05:05:57.828Z,100156.41
2022-11-16T05:08:27.253Z,100149.28
2022-11-16T05:10:56.422Z,100149.75
2022-11-16T05:13:24.538Z,100151.63
2022-11-16T05:15:53.909Z,100154.81
2022-11-16T05:18:25.072Z,100154.59
2022-11-16T05:21:01.496Z,100145.03
2022-11-16T05:23:56.278Z,100147.06
2022-11-16T05:26:27.227Z,100142.75
2022-11-16T05:28:55.884Z,100141.56
2022-11-16T05:31:23.882Z,100154.31
2022-11-16T05:33:51.765Z,100153.44
2022-11-16T05:36:20.592Z,100152.28
2022-11-16T05:38:52.699Z,100150.31
2022-11-16T05:41:26.397Z,100160.25
2022-11-16T05:43:55.230Z,100157.69
2022-11-16T05:46:24.619Z,100157.50
2022-11-16T05:48:52.613Z,100159.84
2022-11-16T05:51:20.665Z,100168.97
2022-11-16T05:53:50.337Z,100164.78
2022-11-16T05:56:22.498Z,100167.38
2022-11-16T05:58:51.264Z,100166.78
2022-11-16T06:01:19.442Z,100168.38
2022-11-16T06:03:47.556Z,100167.44
2022-11-16T06:06:16.236Z,100169.59
2022-11-16T06:08:44.732Z,100166.13
2022-11-16T06:11:18.098Z,100170.25
2022-11-16T06:13:46.777Z,100164.00
2022-11-16T06:16:15.190Z,100168.72
2022-11-16T06:18:45.287Z,100173.44
2022-11-16T06:21:17.015Z,100170.63
2022-11-16T06:23:45.389Z,100174.44
2022-11-16T06:26:13.676Z,100183.75
2022-11-16T06:28:43.106Z,100189.38
2022-11-16T06:31:10.994Z,100185.44
2022-11-16T06:33:42.311Z,100188.97
2022-11-16T06:36:21.028Z,100188.09
2022-11-16T06:38:49.693Z,100179.47
2022-11-16T06:41:17.969Z,100177.84
2022-11-16T06:43:50.947Z,100183.63
2022-11-16T06:46:22.064Z,100188.09
2022-11-16T06:48:50.022Z,100187.91
2022-11-16T06:51:18.956Z,100184.75
2022-11-16T06:53:47.777Z,100179.22
2022-11-16T06:56:18.477Z,100182.16
2022-11-16T06:58:59.527Z,100182.28
2022-11-16T07:01:29.279Z,100186.16
2022-11-16T07:04:03.475Z,100188.75
2022-11-16T07:06:33.299Z,100186.72
2022-11-16T07:09:01.411Z,100198.78
2022-11-16T07:11:32.086Z,100192.28
2022-11-16T07:14:02.440Z,100192.28
2022-11-16T07:16:31.118Z,100192.63
2022-11-16T07:19:02.694Z,100200.38
2022-11-16T07:21:33.165Z,100204.03
2022-11-16T07:24:04.104Z,100210.06
2022-11-16T07:26:33.536Z,100206.22
2022-11-16T07:29:09.429Z,100200.97
2022-11-16T07:31:41.516Z,100201.75
2022-11-16T07:34:38.379Z,100207.25
2022-11-16T07:37:09.874Z,100203.59
2022-11-16T07:39:38.567Z,100192.06
2022-11-16T07:42:13.599Z,100201.22
2022-11-16T07:45:01.489Z,100207.00
2022-11-16T07:47:29.533Z,100203.44
2022-11-16T07:49:58.061Z,100202.09
2022-11-16T07:52:28.615Z,100202.75
2022-11-16T07:54:58.824Z,100206.44
2022-11-16T07:57:28.825Z,100206.09
2022-11-16T08:00:01.222Z,100201.66
2022-11-16T08:02:43.261Z,100204.03
2022-11-16T08:05:18.177Z,100205.50
2022-11-16T08:07:46.861Z,100205.13
2022-11-16T08:10:15.288Z,100201.50
2022-11-16T08:12:43.610Z,100206.16
2022-11-16T08:15:14.162Z,100196.44
2022-11-16T08:17:42.505Z,100208.13
2022-11-16T08:20:13.802Z,100204.34
2022-11-16T08:22:42.866Z,100197.66
2022-11-16T08:25:13.884Z,100213.88
2022-11-16T08:27:45.740Z,100205.50
2022-11-16T08:30:18.123Z,100209.47
2022-11-16T08:32:46.629Z,100204.47
2022-11-16T08:35:16.512Z,100198.31
2022-11-16T08:37:46.061Z,100198.94
2022-11-16T08:40:14.574Z,100186.69
2022-11-16T08:42:44.150Z,100189.38
2022-11-16T08:45:15.333Z,100184.72
2022-11-16T08:47:43.570Z,100184.84
2022-11-16T08:50:11.848Z,100182.31
2022-11-16T08:52:39.952Z,100181.47
2022-11-16T08:55:09.019Z,100176.66
2022-11-16T08:57:37.856Z,100172.94
2022-11-16T09:00:11.928Z,100176.47
2022-11-16T09:02:41.324Z,100172.53
2022-11-16T09:05:11.944Z,100168.69
2022-11-16T09:07:40.704Z,100167.50
2022-11-16T09:10:09.726Z,100170.22
2022-11-16T09:12:38.046Z,100162.03
2022-11-16T09:15:25.045Z,100161.06
2022-11-16T09:17:56.206Z,100160.03
2022-11-16T09:20:24.255Z,100155.75
2022-11-16T09:22:52.188Z,100162.66
2022-11-16T09:25:20.200Z,100156.34
2022-11-16T09:27:48.207Z,100161.91
2022-11-16T09:30:18.383Z,100153.97
2022-11-16T09:32:49.077Z,100150.91
2022-11-16T09:35:22.704Z,100155.50
2022-11-16T09:37:50.671Z,100143.09
2022-11-16T09:40:18.811Z,100143.56
2022-11-16T09:43:02.056Z,100144.09
2022-11-16T09:45:42.820Z,100131.91
2022-11-16T09:48:13.511Z,100136.06
2022-11-16T09:50:50.806Z,100131.81
2022-11-16T09:53:28.116Z,100128.25
2022-11-16T09:55:59.926Z,100128.34
2022-11-16T09:58:32.813Z,100129.47
2022-11-16T10:01:07.384Z,100130.00
2022-11-16T10:03:41.319Z,100131.59
2022-11-16T10:06:20.910Z,100124.81
2022-11-16T10:08:51.292Z,100124.97
2022-11-16T10:11:46.300Z,100123.50
2022-11-16T10:15:01.696Z,100115.69
2022-11-16T10:17:42.849Z,100119.56
2022-11-16T10:20:31.366Z,100124.25
2022-11-16T10:23:12.770Z,100127.22
2022-11-16T10:25:44.607Z,100116.25
2022-11-16T10:28:38.544Z,100115.97
2022-11-16T10:31:14.772Z,100118.97
2022-11-16T10:33:45.994Z,100108.59
2022-11-16T10:36:15.723Z,100106.41
2022-11-16T10:38:45.538Z,100106.25
2022-11-16T10:41:21.288Z,100103.75
2022-11-16T10:43:49.714Z,100098.88
2022-11-16T10:46:22.935Z,100089.53
2022-11-16T10:48:59.992Z,100086.56
2022-11-16T10:51:28.040Z,100090.53
2022-11-16T10:53:57.511Z,100088.31
2022-11-16T10:56:30.094Z,100085.41
2022-11-16T10:59:02.824Z,100086.81
2022-11-16T11:01:34.348Z,100086.13
2022-11-16T11:04:20.809Z,100086.22
2022-11-16T11:06:51.375Z,100086.53
2022-11-16T11:09:31.574Z,100089.59
2022-11-16T11:12:33.079Z,100093.16
2022-11-16T11:15:05.702Z,100090.97
2022-11-16T11:17:35.762Z,100085.94
2022-11-16T11:20:07.049Z,100091.25
2022-11-16T11:22:42.700Z,100087.38
2022-11-16T11:25:21.378Z,100085.59
2022-11-16T11:27:53.684Z,100095.53
2022-11-16T11:30:22.971Z,100088.53
2022-11-16T11:32:54.065Z,100088.75
2022-11-16T11:35:32.517Z,100092.09
2022-11-16T11:38:08.035Z,100087.81
2022-11-16T11:40:37.890Z,100097.94
2022-11-16T11:43:23.375Z,100092.50
2022-11-16T11:45:57.681Z,100098.78
2022-11-16T11:48:47.778Z,100095.66
2022-11-16T11:51:22.207Z,100096.38
2022-11-16T11:53:56.804Z,100088.44
2022-11-16T11:56:27.186Z,100084.88
2022-11-16T11:58:56.459Z,100083.81
2022-11-16T12:01:52.607Z,100083.75
2022-11-16T12:04:42.560Z,100081.84
2022-11-16T12:07:22.262Z,100084.56
2022-11-16T12:09:59.807Z,100084.69
2022-11-16T12:12:46.052Z,100092.41
2022-11-16T12:15:36.632Z,100086.44
2022-11-16T12:18:20.573Z,100089.28
2022-11-16T12:20:59.911Z,100080.41
2022-11-16T12:23:53.615Z,100095.44
2022-11-16T12:26:29.995Z,100096.78
2022-11-16T12:29:13.838Z,100101.63
2022-11-16T12:31:55.856Z,100094.72
2022-11-16T12:34:39.148Z,100091.03
2022-11-16T12:37:17.091Z,100090.41
2022-11-16T12:40:01.531Z,100094.72
2022-11-16T12:42:41.645Z,100091.56
2022-11-16T12:45:29.026Z,100087.25
2022-11-16T12:48:28.509Z,100093.34
2022-11-16T12:51:00.710Z,100089.78
2022-11-16T12:53:45.172Z,100086.25
2022-11-16T12:56:23.963Z,100091.47
2022-11-16T12:59:07.819Z,100087.25
2022-11-16T13:01:43.127Z,100085.00
2022-11-16T13:04:16.215Z,100090.59
2022-11-16T13:06:51.863Z,100084.25
2022-11-16T13:09:24.485Z,100088.44
2022-11-16T13:11:55.641Z,100084.25
2022-11-16T13:14:27.272Z,100080.91
2022-11-16T13:16:58.497Z,100080.91
2022-11-16T13:19:27.365Z,100078.59
2022-11-16T13:22:03.103Z,100073.78
2022-11-16T13:24:45.054Z,100073.78
2022-11-16T13:27:31.823Z,100073.34
2022-11-16T13:30:06.622Z,100072.53
2022-11-16T13:32:48.238Z,100063.53
2022-11-16T13:35:18.466Z,100057.56
2022-11-16T13:37:48.337Z,100054.31
2022-11-16T13:40:25.428Z,100071.69
2022-11-16T13:43:04.052Z,100060.41
2022-11-16T13:45:35.884Z,100060.91
2022-11-16T13:48:23.443Z,100055.50
2022-11-16T13:50:55.059Z,100061.66
2022-11-16T13:54:37.786Z,100063.41
2022-11-16T13:56:16.005Z,100061.22
2022-11-16T13:58:47.586Z,100060.25
2022-11-16T14:01:16.370Z,100064.88
2022-11-16T14:03:46.716Z,100053.19
2022-11-16T14:06:57.277Z,100051.41
2022-11-16T14:09:49.185Z,100064.38
2022-11-16T14:12:59.595Z,100063.00
2022-11-16T14:15:37.613Z,100064.28
2022-11-16T14:18:33.484Z,100056.50
2022-11-16T14:21:14.723Z,100055.81
2022-11-16T14:24:08.809Z,100056.84
2022-11-16T14:26:48.462Z,100054.25
2022-11-16T14:29:40.057Z,100059.88
2022-11-16T14:32:22.706Z,100052.00
2022-11-16T14:34:52.867Z,100061.44
2022-11-16T14:37:35.786Z,100062.59
2022-11-16T14:40:08.015Z,100059.22
2022-11-16T14:43:09.435Z,100063.94
2022-11-16T14:45:38.296Z,100052.75
2022-11-16T14:48:14.244Z,100052.16
2022-11-16T14:50:46.341Z,100051.41
2022-11-16T14:53:19.123Z,100050.59
2022-11-16T14:55:47.244Z,100047.44
2022-11-16T14:58:22.263Z,100043.66
2022-11-16T15:00:56.094Z,100048.59
2022-11-16T15:03:26.573Z,100049.63
2022-11-16T15:05:59.317Z,100042.63
2022-11-16T15:08:34.309Z,100045.97
2022-11-16T15:11:02.640Z,100044.25
2022-11-16T15:13:30.701Z,100043.25
2022-11-16T15:16:15.561Z,100043.66
2022-11-16T15:18:56.121Z,100049.22
2022-11-16T15:21:24.712Z,100050.38
2022-11-16T15:24:23.561Z,100048.28
2022-11-16T15:26:42.414Z,100049.41
2022-11-16T15:29:16.419Z,100047.66
2022-11-16T15:31:44.659Z,100042.25
2022-11-16T15:34:13.861Z,100047.03
2022-11-16T15:36:42.352Z,100044.09
2022-11-16T15:39:16.970Z,100035.72
2022-11-16T15:41:45.967Z,100035.38
2022-11-16T15:44:16.585Z,100037.50
2022-11-16T15:46:48.276Z,100033.63
2022-11-16T15:49:27.558Z,100039.47
2022-11-16T15:51:55.615Z,100032.81
2022-11-16T15:54:26.622Z,100032.50
2022-11-16T15:56:57.116Z,100027.25
2022-11-16T15:59:29.083Z,100031.22
2022-11-16T16:01:57.528Z,100029.06
2022-11-16T16:04:27.061Z,100023.28
2022-11-16T16:06:56.666Z,100027.78
2022-11-16T16:09:28.429Z,100025.06
2022-11-16T16:11:58.452Z,100027.38
2022-11-16T16:14:29.695Z,100026.75
2022-11-16T16:16:59.272Z,100030.09
2022-11-16T16:19:34.538Z,100030.94
2022-11-16T16:22:03.642Z,100031.84
2022-11-16T16:24:42.007Z,100034.41
2022-11-16T16:27:12.404Z,100025.19
2022-11-16T16:29:42.432Z,100034.16
2022-11-16T16:32:23.901Z,100039.81
2022-11-16T16:34:52.571Z,100040.81
2022-11-16T16:37:21.055Z,100032.50
2022-11-16T16:39:51.476Z,100041.59
2022-11-16T16:42:19.951Z,100034.78
2022-11-16T16:44:49.174Z,100038.44
2022-11-16T16:47:20.559Z,100040.63
2022-11-16T16:49:48.693Z,100038.88
2022-11-16T16:52:17.331Z,100035.72
2022-11-16T16:54:45.377Z,100043.22
2022-11-16T16:57:16.640Z,100035.72
2022-11-16T16:59:48.427Z,100027.56
2022-11-16T17:02:22.455Z,100033.53
2022-11-16T17:04:50.423Z,100033.03
2022-11-16T17:07:18.454Z,100034.72
2022-11-16T17:09:46.568Z,100030.72
2022-11-16T17:12:16.044Z,100036.88
2022-11-16T17:14:51.223Z,100036.88
2022-11-16T17:17:19.529Z,100030.81
2022-11-16T17:19:48.283Z,100028.00
2022-11-16T17:22:16.285Z,100032.28
2022-11-16T17:24:46.044Z,100023.19
2022-11-16T17:27:15.479Z,100028.25
2022-11-16T17:29:46.149Z,100027.88
2022-11-16T17:32:14.237Z,100031.66
2022-11-16T17:34:42.267Z,100026.75
2022-11-16T17:37:10.241Z,100036.16
2022-11-16T17:39:38.249Z,100028.13
2022-11-16T17:42:06.195Z,100046.22
2022-11-16T17:44:35.556Z,100039.72
2022-11-16T17:47:03.552Z,100051.22
2022-11-16T17:49:31.822Z,100054.56
2022-11-16T17:51:59.888Z,100047.22
2022-11-16T17:54:27.895Z,100048.59
2022-11-16T17:56:55.983Z,100049.66
2022-11-16T17:59:29.256Z,100049.75
2022-11-16T18:01:59.268Z,100051.50
2022-11-16T18:04:27.266Z,100052.25
2022-11-16T18:06:59.552Z,100059.97
2022-11-16T18:09:27.649Z,100050.06
2022-11-16T18:11:55.854Z,100046.91
2022-11-16T18:14:23.946Z,100051.44
2022-11-16T18:16:52.362Z,100051.31
2022-11-16T18:19:21.775Z,100047.66
2022-11-16T18:21:49.957Z,100048.19
2022-11-16T18:24:17.995Z,100050.69
2022-11-16T18:26:46.067Z,100056.84
2022-11-16T18:29:15.994Z,100051.31
2022-11-16T18:31:44.264Z,100051.19
2022-11-16T18:34:13.473Z,100056.34
2022-11-16T18:36:42.927Z,100059.94
2022-11-16T18:39:10.954Z,100054.59
2022-11-16T18:41:48.599Z,100056.44
2022-11-16T18:44:19.835Z,100051.63
2022-11-16T18:46:50.325Z,100054.44
2022-11-16T18:49:18.252Z,100059.97
2022-11-16T18:51:47.857Z,100050.47
2022-11-16T18:54:15.828Z,100044.53
2022-11-16T18:56:43.792Z,100033.53
2022-11-16T18:59:11.770Z,100029.66
2022-11-16T19:01:39.832Z,100039.94
2022-11-16T19:04:08.740Z,100046.41
2022-11-16T19:06:36.857Z,100046.00
2022-11-16T19:09:09.588Z,100047.50
2022-11-16T19:11:37.822Z,100043.66
2022-11-16T19:14:07.606Z,100046.47
2022-11-16T19:16:36.652Z,100046.97
2022-11-16T19:19:05.252Z,100055.13
2022-11-16T19:21:33.364Z,100054.84
2022-11-16T19:24:01.361Z,100047.66
2022-11-16T19:26:30.827Z,100047.97
2022-11-16T19:29:04.056Z,100043.00
2022-11-16T19:31:33.350Z,100045.03
2022-11-16T19:34:03.024Z,100048.91
2022-11-16T19:36:32.372Z,100052.25
2022-11-16T19:39:00.416Z,100054.38
2022-11-16T19:41:30.239Z,100051.41
2022-11-16T19:44:02.647Z,100053.72
2022-11-16T19:46:32.724Z,100051.63
2022-11-16T19:49:01.385Z,100057.22
2022-11-16T19:51:31.319Z,100058.22
2022-11-16T19:54:00.492Z,100059.63
2022-11-16T19:56:30.085Z,100065.41
2022-11-16T19:58:58.502Z,100065.44
2022-11-16T20:01:29.388Z,100071.81
2022-11-16T20:04:00.451Z,100068.16
2022-11-16T20:06:30.348Z,100076.22
2022-11-16T20:09:00.703Z,100063.91
2022-11-16T20:11:33.651Z,100070.44
2022-11-16T20:14:02.729Z,100074.88
2022-11-16T20:16:38.135Z,100077.03
2022-11-16T20:19:07.312Z,100082.78
2022-11-16T20:21:37.274Z,100069.53
2022-11-16T20:24:07.496Z,100076.63
2022-11-16T20:26:38.574Z,100073.75
2022-11-16T20:29:06.700Z,100078.72
2022-11-16T20:31:35.354Z,100080.00
2022-11-16T20:34:05.787Z,100085.81
2022-11-16T20:36:35.858Z,100083.38
2022-11-16T20:39:04.181Z,100075.00
2022-11-16T20:41:36.646Z,100076.22
2022-11-16T20:44:10.620Z,100081.63
2022-11-16T20:46:43.831Z,100086.75
2022-11-16T20:49:12.064Z,100091.31
2022-11-16T20:51:40.587Z,100090.56
2022-11-16T20:54:08.825Z,100075.94
2022-11-16T20:56:38.294Z,100083.47
2022-11-16T20:59:06.358Z,100084.47
2022-11-16T21:01:34.721Z,100077.09
2022-11-16T21:04:04.808Z,100079.44
2022-11-16T21:06:33.746Z,100080.41
2022-11-16T21:09:02.232Z,100071.91
2022-11-16T21:11:51.711Z,100074.97
2022-11-16T21:14:20.690Z,100078.72
2022-11-16T21:16:48.821Z,100084.53
2022-11-16T21:19:16.950Z,100086.50
2022-11-16T21:21:45.067Z,100082.63
2022-11-16T21:24:13.260Z,100075.03
2022-11-16T21:26:41.224Z,100085.06
2022-11-16T21:29:09.295Z,100085.28
2022-11-16T21:31:38.931Z,100081.72
2022-11-16T21:34:07.677Z,100076.59
2022-11-16T21:36:36.131Z,100079.13
2022-11-16T21:39:04.551Z,100080.53
2022-11-16T21:41:32.668Z,100076.56
2022-11-16T21:44:00.838Z,100086.78
2022-11-16T21:46:29.223Z,100081.78
2022-11-16T21:49:01.159Z,100087.91
2022-11-16T21:51:31.720Z,100088.94
2022-11-16T21:53:59.689Z,100086.72
2022-11-16T21:56:27.810Z,100087.47
2022-11-16T21:58:55.854Z,100088.47
2022-11-16T22:01:24.934Z,100086.34
2022-11-16T22:04:06.930Z,100091.38
2022-11-16T22:06:54.251Z,100086.13
2022-11-16T22:09:23.615Z,100080.72
2022-11-16T22:11:51.552Z,100079.81
2022-11-16T22:14:19.534Z,100081.41
2022-11-16T22:16:47.514Z,100084.38
2022-11-16T22:19:15.519Z,100083.41
2022-11-16T22:21:44.796Z,100085.94
2022-11-16T22:24:12.709Z,100089.63
2022-11-16T22:26:41.049Z,100080.00
2022-11-16T22:29:09.089Z,100084.72
2022-11-16T22:31:37.097Z,100083.16
2022-11-16T22:34:05.270Z,100091.72
2022-11-16T22:36:33.463Z,100095.00
2022-11-16T22:39:03.072Z,100093.06
2022-11-16T22:41:32.110Z,100096.69
2022-11-16T22:44:00.328Z,100092.56
2022-11-16T22:46:28.276Z,100082.63
2022-11-16T22:48:56.676Z,100092.97
2022-11-16T22:51:26.052Z,100090.44
2022-11-16T22:53:55.414Z,100086.34
2022-11-16T22:56:25.073Z,100076.66
2022-11-16T22:58:53.649Z,100074.06
2022-11-16T23:01:22.133Z,100067.06
2022-11-16T23:03:50.499Z,100065.13
2022-11-16T23:06:18.660Z,100068.50
2022-11-16T23:08:46.770Z,100059.38
2022-11-16T23:11:34.678Z,100068.75
2022-11-16T23:14:23.708Z,100071.44
2022-11-16T23:16:51.978Z,100067.25
2022-11-16T23:19:50.038Z,100069.03
2022-11-16T23:22:37.252Z,100066.72
2022-11-16T23:25:25.312Z,100064.38
2022-11-16T23:27:57.907Z,100055.16
2022-11-16T23:30:27.850Z,100055.78
2022-11-16T23:32:55.960Z,100055.28
2022-11-16T23:35:24.445Z,100047.56
2022-11-16T23:37:53.831Z,100036.41
2022-11-16T23:40:23.185Z,100041.50
2022-11-16T23:43:09.997Z,100046.78
2022-11-16T23:45:39.985Z,100043.50
2022-11-16T23:48:08.690Z,100050.75
2022-11-16T23:50:37.534Z,100046.56
2022-11-16T23:53:06.498Z,100035.88
2022-11-16T23:55:35.590Z,100032.25
2022-11-16T23:58:03.536Z,100032.16
